sensor_id;sensor_type;location;lat;lon;timestamp;P1;durP1;ratioP1;P2;durP2;ratioP2
74229;SDS011;62589;12.568;99.958;2023-07-30T00:00:21;7.43;;;2.60;;
74229;SDS011;62589;12.568;99.958;2023-07-30T00:02:47;8.85;;;1.92;;
74229;SDS011;62589;12.568;99.958;2023-07-30T00:05:14;6.35;;;2.15;;
74229;SDS011;62589;12.568;99.958;2023-07-30T00:07:40;5.25;;;1.77;;
74229;SDS011;62589;12.568;99.958;2023-07-30T00:10:07;5.75;;;1.85;;
74229;SDS011;62589;12.568;99.958;2023-07-30T00:12:33;9.13;;;2.13;;
74229;SDS011;62589;12.568;99.958;2023-07-30T00:15:00;7.72;;;2.53;;
74229;SDS011;62589;12.568;99.958;2023-07-30T00:17:26;5.10;;;1.60;;
74229;SDS011;62589;12.568;99.958;2023-07-30T00:19:53;8.68;;;2.17;;
74229;SDS011;62589;12.568;99.958;2023-07-30T00:22:19;6.10;;;2.38;;
74229;SDS011;62589;12.568;99.958;2023-07-30T00:24:46;10.68;;;2.40;;
74229;SDS011;62589;12.568;99.958;2023-07-30T00:27:12;10.70;;;2.90;;
74229;SDS011;62589;12.568;99.958;2023-07-30T00:29:38;7.25;;;2.00;;
74229;SDS011;62589;12.568;99.958;2023-07-30T00:32:05;14.30;;;2.30;;
74229;SDS011;62589;12.568;99.958;2023-07-30T00:34:32;7.00;;;1.95;;
74229;SDS011;62589;12.568;99.958;2023-07-30T00:36:58;11.00;;;2.20;;
74229;SDS011;62589;12.568;99.958;2023-07-30T00:39:25;17.92;;;2.88;;
74229;SDS011;62589;12.568;99.958;2023-07-30T00:41:51;8.50;;;2.28;;
74229;SDS011;62589;12.568;99.958;2023-07-30T00:44:18;7.55;;;2.10;;
74229;SDS011;62589;12.568;99.958;2023-07-30T00:46:44;6.55;;;2.03;;
74229;SDS011;62589;12.568;99.958;2023-07-30T00:49:11;10.00;;;2.00;;
74229;SDS011;62589;12.568;99.958;2023-07-30T00:51:38;8.02;;;2.05;;
74229;SDS011;62589;12.568;99.958;2023-07-30T00:54:05;8.20;;;2.42;;
74229;SDS011;62589;12.568;99.958;2023-07-30T00:56:32;10.57;;;2.10;;
74229;SDS011;62589;12.568;99.958;2023-07-30T00:58:59;8.27;;;1.70;;
74229;SDS011;62589;12.568;99.958;2023-07-30T01:01:26;9.40;;;2.25;;
74229;SDS011;62589;12.568;99.958;2023-07-30T01:03:53;6.63;;;2.10;;
74229;SDS011;62589;12.568;99.958;2023-07-30T01:06:20;7.15;;;2.10;;
74229;SDS011;62589;12.568;99.958;2023-07-30T01:08:47;7.22;;;2.38;;
74229;SDS011;62589;12.568;99.958;2023-07-30T01:11:14;8.88;;;2.00;;
74229;SDS011;62589;12.568;99.958;2023-07-30T01:13:41;7.85;;;2.08;;
74229;SDS011;62589;12.568;99.958;2023-07-30T01:16:09;7.60;;;2.22;;
74229;SDS011;62589;12.568;99.958;2023-07-30T01:18:36;7.13;;;2.78;;
74229;SDS011;62589;12.568;99.958;2023-07-30T01:21:03;10.93;;;2.55;;
74229;SDS011;62589;12.568;99.958;2023-07-30T01:23:29;9.35;;;2.03;;
74229;SDS011;62589;12.568;99.958;2023-07-30T01:26:01;6.20;;;1.90;;
74229;SDS011;62589;12.568;99.958;2023-07-30T01:28:33;10.85;;;2.50;;
74229;SDS011;62589;12.568;99.958;2023-07-30T01:31:15;8.88;;;1.92;;
74229;SDS011;62589;12.568;99.958;2023-07-30T01:33:44;8.70;;;1.70;;
74229;SDS011;62589;12.568;99.958;2023-07-30T01:36:18;8.35;;;1.83;;
74229;SDS011;62589;12.568;99.958;2023-07-30T01:38:47;8.60;;;2.40;;
74229;SDS011;62589;12.568;99.958;2023-07-30T01:41:14;10.02;;;2.63;;
74229;SDS011;62589;12.568;99.958;2023-07-30T01:43:41;7.18;;;2.13;;
74229;SDS011;62589;12.568;99.958;2023-07-30T01:46:07;12.50;;;2.50;;
74229;SDS011;62589;12.568;99.958;2023-07-30T01:48:34;7.70;;;1.83;;
74229;SDS011;62589;12.568;99.958;2023-07-30T01:51:00;6.70;;;1.98;;
74229;SDS011;62589;12.568;99.958;2023-07-30T01:53:27;9.55;;;1.45;;
74229;SDS011;62589;12.568;99.958;2023-07-30T01:55:53;10.60;;;1.90;;
74229;SDS011;62589;12.568;99.958;2023-07-30T01:58:20;11.05;;;2.10;;
74229;SDS011;62589;12.568;99.958;2023-07-30T02:00:46;5.55;;;2.03;;
74229;SDS011;62589;12.568;99.958;2023-07-30T02:03:13;9.75;;;2.67;;
74229;SDS011;62589;12.568;99.958;2023-07-30T02:05:39;15.20;;;2.30;;
74229;SDS011;62589;12.568;99.958;2023-07-30T02:08:06;9.73;;;2.67;;
74229;SDS011;62589;12.568;99.958;2023-07-30T02:10:32;11.38;;;2.67;;
74229;SDS011;62589;12.568;99.958;2023-07-30T02:12:59;8.15;;;2.00;;
74229;SDS011;62589;12.568;99.958;2023-07-30T02:15:25;10.90;;;2.40;;
74229;SDS011;62589;12.568;99.958;2023-07-30T02:17:52;9.27;;;2.65;;
74229;SDS011;62589;12.568;99.958;2023-07-30T02:20:18;11.00;;;2.50;;
74229;SDS011;62589;12.568;99.958;2023-07-30T02:22:45;7.72;;;2.53;;
74229;SDS011;62589;12.568;99.958;2023-07-30T02:25:11;10.80;;;2.83;;
74229;SDS011;62589;12.568;99.958;2023-07-30T02:27:38;13.10;;;2.55;;
74229;SDS011;62589;12.568;99.958;2023-07-30T02:30:04;9.63;;;2.60;;
74229;SDS011;62589;12.568;99.958;2023-07-30T02:32:31;13.35;;;2.75;;
74229;SDS011;62589;12.568;99.958;2023-07-30T02:34:58;9.80;;;2.75;;
74229;SDS011;62589;12.568;99.958;2023-07-30T02:37:24;10.77;;;2.50;;
74229;SDS011;62589;12.568;99.958;2023-07-30T02:39:51;11.70;;;2.67;;
74229;SDS011;62589;12.568;99.958;2023-07-30T02:42:17;16.80;;;2.90;;
74229;SDS011;62589;12.568;99.958;2023-07-30T02:44:44;10.52;;;3.00;;
74229;SDS011;62589;12.568;99.958;2023-07-30T02:47:10;15.18;;;2.95;;
74229;SDS011;62589;12.568;99.958;2023-07-30T02:49:36;10.43;;;2.70;;
74229;SDS011;62589;12.568;99.958;2023-07-30T02:52:03;11.77;;;2.88;;
74229;SDS011;62589;12.568;99.958;2023-07-30T02:54:30;12.68;;;3.40;;
74229;SDS011;62589;12.568;99.958;2023-07-30T02:56:56;13.98;;;2.70;;
74229;SDS011;62589;12.568;99.958;2023-07-30T02:59:22;11.38;;;2.58;;
74229;SDS011;62589;12.568;99.958;2023-07-30T03:01:49;9.85;;;2.88;;
74229;SDS011;62589;12.568;99.958;2023-07-30T03:04:15;11.73;;;3.45;;
74229;SDS011;62589;12.568;99.958;2023-07-30T03:06:42;11.85;;;2.83;;
74229;SDS011;62589;12.568;99.958;2023-07-30T03:09:08;12.43;;;2.83;;
74229;SDS011;62589;12.568;99.958;2023-07-30T03:11:35;12.43;;;2.65;;
74229;SDS011;62589;12.568;99.958;2023-07-30T03:14:01;12.27;;;2.75;;
74229;SDS011;62589;12.568;99.958;2023-07-30T03:16:28;8.70;;;2.65;;
74229;SDS011;62589;12.568;99.958;2023-07-30T03:18:54;11.85;;;3.13;;
74229;SDS011;62589;12.568;99.958;2023-07-30T03:21:21;10.65;;;3.20;;
74229;SDS011;62589;12.568;99.958;2023-07-30T03:23:47;11.35;;;2.60;;
74229;SDS011;62589;12.568;99.958;2023-07-30T03:26:14;15.38;;;2.30;;
74229;SDS011;62589;12.568;99.958;2023-07-30T03:28:40;12.88;;;2.83;;
74229;SDS011;62589;12.568;99.958;2023-07-30T03:31:07;12.35;;;3.17;;
74229;SDS011;62589;12.568;99.958;2023-07-30T03:33:33;7.22;;;2.25;;
74229;SDS011;62589;12.568;99.958;2023-07-30T03:36:00;8.93;;;2.53;;
74229;SDS011;62589;12.568;99.958;2023-07-30T03:38:26;6.38;;;2.22;;
74229;SDS011;62589;12.568;99.958;2023-07-30T03:40:53;10.50;;;1.98;;
74229;SDS011;62589;12.568;99.958;2023-07-30T03:43:20;12.73;;;2.95;;
74229;SDS011;62589;12.568;99.958;2023-07-30T03:45:46;10.30;;;2.38;;
74229;SDS011;62589;12.568;99.958;2023-07-30T03:48:14;14.38;;;2.40;;
74229;SDS011;62589;12.568;99.958;2023-07-30T03:50:40;12.55;;;2.60;;
74229;SDS011;62589;12.568;99.958;2023-07-30T03:53:07;8.50;;;2.22;;
74229;SDS011;62589;12.568;99.958;2023-07-30T03:55:33;9.55;;;2.40;;
74229;SDS011;62589;12.568;99.958;2023-07-30T03:57:59;12.98;;;2.60;;
74229;SDS011;62589;12.568;99.958;2023-07-30T04:00:26;12.98;;;2.80;;
74229;SDS011;62589;12.568;99.958;2023-07-30T04:02:53;11.00;;;2.55;;
74229;SDS011;62589;12.568;99.958;2023-07-30T04:05:20;9.02;;;2.70;;
74229;SDS011;62589;12.568;99.958;2023-07-30T04:07:46;9.85;;;2.50;;
74229;SDS011;62589;12.568;99.958;2023-07-30T04:10:13;10.50;;;2.33;;
74229;SDS011;62589;12.568;99.958;2023-07-30T04:12:39;10.38;;;2.33;;
74229;SDS011;62589;12.568;99.958;2023-07-30T04:15:06;6.18;;;2.33;;
74229;SDS011;62589;12.568;99.958;2023-07-30T04:17:34;9.52;;;2.75;;
74229;SDS011;62589;12.568;99.958;2023-07-30T04:20:02;7.10;;;2.13;;
74229;SDS011;62589;12.568;99.958;2023-07-30T04:22:29;10.90;;;2.50;;
74229;SDS011;62589;12.568;99.958;2023-07-30T04:24:56;7.78;;;2.70;;
74229;SDS011;62589;12.568;99.958;2023-07-30T04:27:23;7.88;;;2.65;;
74229;SDS011;62589;12.568;99.958;2023-07-30T04:29:49;8.02;;;2.50;;
74229;SDS011;62589;12.568;99.958;2023-07-30T04:32:16;10.55;;;2.78;;
74229;SDS011;62589;12.568;99.958;2023-07-30T04:34:42;9.63;;;2.40;;
74229;SDS011;62589;12.568;99.958;2023-07-30T04:37:09;12.45;;;2.60;;
74229;SDS011;62589;12.568;99.958;2023-07-30T04:39:35;10.05;;;2.33;;
74229;SDS011;62589;12.568;99.958;2023-07-30T04:42:02;12.50;;;2.53;;
74229;SDS011;62589;12.568;99.958;2023-07-30T04:44:30;10.15;;;2.92;;
74229;SDS011;62589;12.568;99.958;2023-07-30T04:46:56;16.05;;;2.83;;
74229;SDS011;62589;12.568;99.958;2023-07-30T04:49:22;9.90;;;2.35;;
74229;SDS011;62589;12.568;99.958;2023-07-30T04:51:49;9.25;;;2.40;;
74229;SDS011;62589;12.568;99.958;2023-07-30T04:54:18;13.38;;;3.03;;
74229;SDS011;62589;12.568;99.958;2023-07-30T04:56:45;13.10;;;3.03;;
74229;SDS011;62589;12.568;99.958;2023-07-30T04:59:11;9.73;;;3.15;;
74229;SDS011;62589;12.568;99.958;2023-07-30T05:01:38;7.57;;;2.15;;
74229;SDS011;62589;12.568;99.958;2023-07-30T05:04:04;11.43;;;2.90;;
74229;SDS011;62589;12.568;99.958;2023-07-30T05:06:31;9.80;;;2.88;;
74229;SDS011;62589;12.568;99.958;2023-07-30T05:08:58;10.80;;;2.47;;
74229;SDS011;62589;12.568;99.958;2023-07-30T05:11:24;12.23;;;3.00;;
74229;SDS011;62589;12.568;99.958;2023-07-30T05:13:51;10.20;;;2.85;;
74229;SDS011;62589;12.568;99.958;2023-07-30T05:16:17;13.10;;;2.58;;
74229;SDS011;62589;12.568;99.958;2023-07-30T05:18:43;9.05;;;2.78;;
74229;SDS011;62589;12.568;99.958;2023-07-30T05:21:10;7.40;;;2.40;;
74229;SDS011;62589;12.568;99.958;2023-07-30T05:23:36;11.23;;;2.58;;
74229;SDS011;62589;12.568;99.958;2023-07-30T05:26:03;13.88;;;2.60;;
74229;SDS011;62589;12.568;99.958;2023-07-30T05:28:29;12.65;;;2.95;;
74229;SDS011;62589;12.568;99.958;2023-07-30T05:30:55;8.63;;;2.50;;
74229;SDS011;62589;12.568;99.958;2023-07-30T05:33:22;10.43;;;2.78;;
74229;SDS011;62589;12.568;99.958;2023-07-30T05:35:48;8.52;;;2.85;;
74229;SDS011;62589;12.568;99.958;2023-07-30T05:38:15;8.85;;;2.63;;
74229;SDS011;62589;12.568;99.958;2023-07-30T05:40:41;13.57;;;2.72;;
74229;SDS011;62589;12.568;99.958;2023-07-30T05:43:08;8.10;;;2.47;;
74229;SDS011;62589;12.568;99.958;2023-07-30T05:45:34;9.15;;;2.40;;
74229;SDS011;62589;12.568;99.958;2023-07-30T05:48:01;11.07;;;2.95;;
74229;SDS011;62589;12.568;99.958;2023-07-30T05:50:27;11.30;;;2.70;;
74229;SDS011;62589;12.568;99.958;2023-07-30T05:52:54;8.35;;;2.20;;
74229;SDS011;62589;12.568;99.958;2023-07-30T05:55:20;12.77;;;3.00;;
74229;SDS011;62589;12.568;99.958;2023-07-30T05:57:46;15.40;;;2.80;;
74229;SDS011;62589;12.568;99.958;2023-07-30T06:00:13;11.00;;;2.53;;
74229;SDS011;62589;12.568;99.958;2023-07-30T06:02:39;8.57;;;2.58;;
74229;SDS011;62589;12.568;99.958;2023-07-30T06:05:06;9.52;;;2.40;;
74229;SDS011;62589;12.568;99.958;2023-07-30T06:07:32;16.00;;;2.80;;
74229;SDS011;62589;12.568;99.958;2023-07-30T06:09:59;14.38;;;2.60;;
74229;SDS011;62589;12.568;99.958;2023-07-30T06:12:25;12.05;;;2.92;;
74229;SDS011;62589;12.568;99.958;2023-07-30T06:14:52;7.57;;;2.55;;
74229;SDS011;62589;12.568;99.958;2023-07-30T06:17:18;9.57;;;2.47;;
74229;SDS011;62589;12.568;99.958;2023-07-30T06:19:44;10.50;;;2.60;;
74229;SDS011;62589;12.568;99.958;2023-07-30T06:22:11;9.43;;;3.03;;
74229;SDS011;62589;12.568;99.958;2023-07-30T06:24:37;9.63;;;2.85;;
74229;SDS011;62589;12.568;99.958;2023-07-30T06:27:04;9.10;;;2.15;;
74229;SDS011;62589;12.568;99.958;2023-07-30T06:29:31;10.18;;;2.30;;
74229;SDS011;62589;12.568;99.958;2023-07-30T06:31:57;10.57;;;2.67;;
74229;SDS011;62589;12.568;99.958;2023-07-30T06:34:24;12.07;;;3.03;;
74229;SDS011;62589;12.568;99.958;2023-07-30T06:36:50;9.25;;;2.88;;
74229;SDS011;62589;12.568;99.958;2023-07-30T06:39:17;12.30;;;3.47;;
74229;SDS011;62589;12.568;99.958;2023-07-30T06:41:43;10.15;;;2.85;;
74229;SDS011;62589;12.568;99.958;2023-07-30T06:44:09;13.50;;;2.83;;
74229;SDS011;62589;12.568;99.958;2023-07-30T06:46:36;14.55;;;2.80;;
74229;SDS011;62589;12.568;99.958;2023-07-30T06:49:02;8.98;;;2.30;;
74229;SDS011;62589;12.568;99.958;2023-07-30T06:51:28;11.68;;;2.70;;
74229;SDS011;62589;12.568;99.958;2023-07-30T06:53:56;12.68;;;2.60;;
74229;SDS011;62589;12.568;99.958;2023-07-30T06:56:22;11.02;;;2.65;;
74229;SDS011;62589;12.568;99.958;2023-07-30T06:58:48;10.43;;;2.80;;
74229;SDS011;62589;12.568;99.958;2023-07-30T07:01:15;9.35;;;2.25;;
74229;SDS011;62589;12.568;99.958;2023-07-30T07:03:41;14.02;;;2.65;;
74229;SDS011;62589;12.568;99.958;2023-07-30T07:06:08;9.02;;;2.15;;
74229;SDS011;62589;12.568;99.958;2023-07-30T07:08:34;7.65;;;2.67;;
74229;SDS011;62589;12.568;99.958;2023-07-30T07:11:01;10.15;;;2.53;;
74229;SDS011;62589;12.568;99.958;2023-07-30T07:13:30;11.80;;;2.50;;
74229;SDS011;62589;12.568;99.958;2023-07-30T07:15:57;10.75;;;2.85;;
74229;SDS011;62589;12.568;99.958;2023-07-30T07:18:23;10.57;;;2.47;;
74229;SDS011;62589;12.568;99.958;2023-07-30T07:20:49;7.78;;;2.22;;
74229;SDS011;62589;12.568;99.958;2023-07-30T07:23:16;7.50;;;2.80;;
74229;SDS011;62589;12.568;99.958;2023-07-30T07:25:43;7.53;;;2.40;;
74229;SDS011;62589;12.568;99.958;2023-07-30T07:28:10;12.07;;;2.58;;
74229;SDS011;62589;12.568;99.958;2023-07-30T07:30:36;10.25;;;2.45;;
74229;SDS011;62589;12.568;99.958;2023-07-30T07:33:03;14.13;;;2.00;;
74229;SDS011;62589;12.568;99.958;2023-07-30T07:35:31;6.85;;;2.42;;
74229;SDS011;62589;12.568;99.958;2023-07-30T07:37:57;9.68;;;2.72;;
74229;SDS011;62589;12.568;99.958;2023-07-30T07:40:27;13.25;;;2.30;;
74229;SDS011;62589;12.568;99.958;2023-07-30T07:43:01;6.47;;;2.30;;
74229;SDS011;62589;12.568;99.958;2023-07-30T07:45:27;11.00;;;2.70;;
74229;SDS011;62589;12.568;99.958;2023-07-30T07:47:56;11.73;;;2.22;;
74229;SDS011;62589;12.568;99.958;2023-07-30T07:50:23;10.32;;;2.35;;
74229;SDS011;62589;12.568;99.958;2023-07-30T07:52:49;11.82;;;2.65;;
74229;SDS011;62589;12.568;99.958;2023-07-30T07:55:16;8.85;;;2.00;;
74229;SDS011;62589;12.568;99.958;2023-07-30T07:57:42;7.60;;;2.50;;
74229;SDS011;62589;12.568;99.958;2023-07-30T08:00:09;9.57;;;2.55;;
74229;SDS011;62589;12.568;99.958;2023-07-30T08:02:36;8.27;;;2.60;;
74229;SDS011;62589;12.568;99.958;2023-07-30T08:05:02;10.35;;;2.72;;
74229;SDS011;62589;12.568;99.958;2023-07-30T08:07:29;9.82;;;3.30;;
74229;SDS011;62589;12.568;99.958;2023-07-30T08:09:55;8.85;;;2.90;;
74229;SDS011;62589;12.568;99.958;2023-07-30T08:12:22;7.43;;;2.20;;
74229;SDS011;62589;12.568;99.958;2023-07-30T08:14:48;10.32;;;2.65;;
74229;SDS011;62589;12.568;99.958;2023-07-30T08:17:15;10.27;;;2.53;;
74229;SDS011;62589;12.568;99.958;2023-07-30T08:19:42;11.07;;;2.97;;
74229;SDS011;62589;12.568;99.958;2023-07-30T08:22:08;8.18;;;2.60;;
74229;SDS011;62589;12.568;99.958;2023-07-30T08:24:35;13.32;;;2.88;;
74229;SDS011;62589;12.568;99.958;2023-07-30T08:27:01;9.60;;;2.65;;
74229;SDS011;62589;12.568;99.958;2023-07-30T08:29:28;7.47;;;2.83;;
74229;SDS011;62589;12.568;99.958;2023-07-30T08:31:54;10.05;;;2.40;;
74229;SDS011;62589;12.568;99.958;2023-07-30T08:34:21;9.45;;;2.78;;
74229;SDS011;62589;12.568;99.958;2023-07-30T08:36:48;10.35;;;2.72;;
74229;SDS011;62589;12.568;99.958;2023-07-30T08:39:15;10.40;;;1.95;;
74229;SDS011;62589;12.568;99.958;2023-07-30T08:41:41;9.23;;;2.30;;
74229;SDS011;62589;12.568;99.958;2023-07-30T08:44:08;8.88;;;2.33;;
74229;SDS011;62589;12.568;99.958;2023-07-30T08:46:35;9.30;;;2.20;;
74229;SDS011;62589;12.568;99.958;2023-07-30T08:49:02;8.20;;;1.98;;
74229;SDS011;62589;12.568;99.958;2023-07-30T08:51:29;7.93;;;1.83;;
74229;SDS011;62589;12.568;99.958;2023-07-30T08:53:57;7.85;;;2.50;;
74229;SDS011;62589;12.568;99.958;2023-07-30T08:56:23;7.13;;;2.22;;
74229;SDS011;62589;12.568;99.958;2023-07-30T08:58:51;8.77;;;2.63;;
74229;SDS011;62589;12.568;99.958;2023-07-30T09:01:22;4.72;;;1.70;;
74229;SDS011;62589;12.568;99.958;2023-07-30T09:03:57;5.97;;;1.70;;
74229;SDS011;62589;12.568;99.958;2023-07-30T09:06:27;6.03;;;2.35;;
74229;SDS011;62589;12.568;99.958;2023-07-30T09:08:54;5.47;;;1.75;;
74229;SDS011;62589;12.568;99.958;2023-07-30T09:11:20;4.85;;;2.13;;
74229;SDS011;62589;12.568;99.958;2023-07-30T09:13:53;5.82;;;2.00;;
74229;SDS011;62589;12.568;99.958;2023-07-30T09:16:26;6.10;;;2.13;;
74229;SDS011;62589;12.568;99.958;2023-07-30T09:18:53;5.63;;;1.88;;
74229;SDS011;62589;12.568;99.958;2023-07-30T09:21:29;7.55;;;1.95;;
74229;SDS011;62589;12.568;99.958;2023-07-30T09:24:03;4.50;;;1.75;;
74229;SDS011;62589;12.568;99.958;2023-07-30T09:26:39;7.28;;;1.90;;
74229;SDS011;62589;12.568;99.958;2023-07-30T09:29:10;6.22;;;1.67;;
74229;SDS011;62589;12.568;99.958;2023-07-30T09:31:43;7.05;;;2.63;;
74229;SDS011;62589;12.568;99.958;2023-07-30T09:34:17;5.45;;;1.98;;
74229;SDS011;62589;12.568;99.958;2023-07-30T09:36:44;12.45;;;2.83;;
74229;SDS011;62589;12.568;99.958;2023-07-30T09:39:15;8.38;;;2.20;;
74229;SDS011;62589;12.568;99.958;2023-07-30T09:41:44;8.60;;;2.50;;
74229;SDS011;62589;12.568;99.958;2023-07-30T09:44:11;7.30;;;2.38;;
74229;SDS011;62589;12.568;99.958;2023-07-30T09:46:42;7.90;;;2.05;;
74229;SDS011;62589;12.568;99.958;2023-07-30T09:49:10;6.55;;;2.10;;
74229;SDS011;62589;12.568;99.958;2023-07-30T09:51:40;11.18;;;2.55;;
74229;SDS011;62589;12.568;99.958;2023-07-30T09:54:11;11.73;;;1.88;;
74229;SDS011;62589;12.568;99.958;2023-07-30T09:56:41;8.13;;;2.50;;
74229;SDS011;62589;12.568;99.958;2023-07-30T09:59:08;7.15;;;2.22;;
74229;SDS011;62589;12.568;99.958;2023-07-30T10:01:38;8.82;;;2.15;;
74229;SDS011;62589;12.568;99.958;2023-07-30T10:04:11;7.32;;;2.15;;
74229;SDS011;62589;12.568;99.958;2023-07-30T10:07:03;5.93;;;2.08;;
74229;SDS011;62589;12.568;99.958;2023-07-30T10:09:35;7.43;;;2.05;;
74229;SDS011;62589;12.568;99.958;2023-07-30T10:12:16;6.63;;;1.70;;
74229;SDS011;62589;12.568;99.958;2023-07-30T10:14:48;9.88;;;2.05;;
74229;SDS011;62589;12.568;99.958;2023-07-30T10:17:18;6.03;;;1.88;;
74229;SDS011;62589;12.568;99.958;2023-07-30T10:19:48;7.25;;;1.98;;
74229;SDS011;62589;12.568;99.958;2023-07-30T10:22:23;9.43;;;2.10;;
74229;SDS011;62589;12.568;99.958;2023-07-30T10:25:01;10.07;;;2.00;;
74229;SDS011;62589;12.568;99.958;2023-07-30T10:27:41;7.85;;;2.50;;
74229;SDS011;62589;12.568;99.958;2023-07-30T10:30:20;7.13;;;2.05;;
74229;SDS011;62589;12.568;99.958;2023-07-30T10:33:00;7.13;;;1.65;;
74229;SDS011;62589;12.568;99.958;2023-07-30T10:35:38;6.82;;;2.58;;
74229;SDS011;62589;12.568;99.958;2023-07-30T10:43:51;10.13;;;3.70;;
74229;SDS011;62589;12.568;99.958;2023-07-30T10:46:19;15.50;;;4.03;;
74229;SDS011;62589;12.568;99.958;2023-07-30T10:48:47;7.43;;;1.90;;
74229;SDS011;62589;12.568;99.958;2023-07-30T10:51:15;8.90;;;2.33;;
74229;SDS011;62589;12.568;99.958;2023-07-30T10:53:43;8.70;;;2.53;;
74229;SDS011;62589;12.568;99.958;2023-07-30T10:56:12;8.02;;;2.35;;
74229;SDS011;62589;12.568;99.958;2023-07-30T10:58:39;7.57;;;2.55;;
74229;SDS011;62589;12.568;99.958;2023-07-30T11:01:06;9.60;;;2.70;;
74229;SDS011;62589;12.568;99.958;2023-07-30T11:03:34;7.50;;;2.20;;
74229;SDS011;62589;12.568;99.958;2023-07-30T11:06:03;8.07;;;2.72;;
74229;SDS011;62589;12.568;99.958;2023-07-30T11:08:36;7.18;;;2.78;;
74229;SDS011;62589;12.568;99.958;2023-07-30T11:11:05;8.40;;;2.78;;
74229;SDS011;62589;12.568;99.958;2023-07-30T11:13:42;9.18;;;3.22;;
74229;SDS011;62589;12.568;99.958;2023-07-30T11:16:11;11.15;;;2.80;;
74229;SDS011;62589;12.568;99.958;2023-07-30T11:18:38;8.70;;;2.63;;
74229;SDS011;62589;12.568;99.958;2023-07-30T11:21:07;7.97;;;2.72;;
74229;SDS011;62589;12.568;99.958;2023-07-30T11:23:35;14.20;;;2.90;;
74229;SDS011;62589;12.568;99.958;2023-07-30T11:26:03;20.63;;;3.35;;
74229;SDS011;62589;12.568;99.958;2023-07-30T11:28:33;13.18;;;2.92;;
74229;SDS011;62589;12.568;99.958;2023-07-30T11:31:03;10.27;;;2.95;;
74229;SDS011;62589;12.568;99.958;2023-07-30T11:33:41;13.35;;;2.80;;
74229;SDS011;62589;12.568;99.958;2023-07-30T11:36:18;8.23;;;2.50;;
74229;SDS011;62589;12.568;99.958;2023-07-30T11:38:46;10.07;;;2.58;;
74229;SDS011;62589;12.568;99.958;2023-07-30T11:41:14;8.65;;;2.10;;
74229;SDS011;62589;12.568;99.958;2023-07-30T11:43:44;10.50;;;2.08;;
74229;SDS011;62589;12.568;99.958;2023-07-30T11:46:12;7.28;;;1.98;;
74229;SDS011;62589;12.568;99.958;2023-07-30T11:48:40;7.60;;;1.92;;
74229;SDS011;62589;12.568;99.958;2023-07-30T11:53:52;10.85;;;2.28;;
74229;SDS011;62589;12.568;99.958;2023-07-30T11:56:23;6.03;;;2.40;;
74229;SDS011;62589;12.568;99.958;2023-07-30T11:59:15;9.05;;;2.13;;
74229;SDS011;62589;12.568;99.958;2023-07-30T12:01:41;8.57;;;2.35;;
74229;SDS011;62589;12.568;99.958;2023-07-30T12:04:08;7.80;;;2.45;;
74229;SDS011;62589;12.568;99.958;2023-07-30T12:06:41;9.65;;;2.50;;
74229;SDS011;62589;12.568;99.958;2023-07-30T12:09:18;8.52;;;3.08;;
74229;SDS011;62589;12.568;99.958;2023-07-30T12:11:56;10.95;;;2.70;;
74229;SDS011;62589;12.568;99.958;2023-07-30T12:14:25;7.68;;;2.40;;
74229;SDS011;62589;12.568;99.958;2023-07-30T12:19:33;8.68;;;2.25;;
74229;SDS011;62589;12.568;99.958;2023-07-30T12:22:01;11.07;;;2.15;;
74229;SDS011;62589;12.568;99.958;2023-07-30T12:24:28;6.65;;;2.47;;
74229;SDS011;62589;12.568;99.958;2023-07-30T12:26:54;6.00;;;2.00;;
74229;SDS011;62589;12.568;99.958;2023-07-30T12:29:21;5.05;;;1.80;;
74229;SDS011;62589;12.568;99.958;2023-07-30T12:31:50;3.65;;;1.67;;
74229;SDS011;62589;12.568;99.958;2023-07-30T12:34:19;5.40;;;2.00;;
74229;SDS011;62589;12.568;99.958;2023-07-30T12:36:46;5.07;;;1.20;;
74229;SDS011;62589;12.568;99.958;2023-07-30T12:39:12;3.25;;;1.08;;
74229;SDS011;62589;12.568;99.958;2023-07-30T12:41:39;3.60;;;1.58;;
74229;SDS011;62589;12.568;99.958;2023-07-30T12:44:05;5.93;;;0.98;;
74229;SDS011;62589;12.568;99.958;2023-07-30T12:46:32;3.72;;;1.20;;
74229;SDS011;62589;12.568;99.958;2023-07-30T12:48:58;3.08;;;0.98;;
74229;SDS011;62589;12.568;99.958;2023-07-30T12:51:30;2.10;;;1.27;;
74229;SDS011;62589;12.568;99.958;2023-07-30T12:53:57;1.95;;;0.90;;
74229;SDS011;62589;12.568;99.958;2023-07-30T12:56:23;4.13;;;1.13;;
74229;SDS011;62589;12.568;99.958;2023-07-30T12:58:49;5.57;;;1.20;;
74229;SDS011;62589;12.568;99.958;2023-07-30T13:01:16;3.30;;;1.02;;
74229;SDS011;62589;12.568;99.958;2023-07-30T13:03:42;2.72;;;1.10;;
74229;SDS011;62589;12.568;99.958;2023-07-30T13:06:11;5.28;;;1.60;;
74229;SDS011;62589;12.568;99.958;2023-07-30T13:08:41;2.92;;;1.40;;
74229;SDS011;62589;12.568;99.958;2023-07-30T13:11:07;3.00;;;1.58;;
74229;SDS011;62589;12.568;99.958;2023-07-30T13:13:33;3.53;;;1.17;;
74229;SDS011;62589;12.568;99.958;2023-07-30T13:16:00;4.63;;;1.30;;
74229;SDS011;62589;12.568;99.958;2023-07-30T13:18:27;1.92;;;1.05;;
74229;SDS011;62589;12.568;99.958;2023-07-30T13:20:54;3.28;;;0.90;;
74229;SDS011;62589;12.568;99.958;2023-07-30T13:23:20;2.15;;;0.80;;
74229;SDS011;62589;12.568;99.958;2023-07-30T13:25:47;4.03;;;1.30;;
74229;SDS011;62589;12.568;99.958;2023-07-30T13:28:13;4.05;;;1.20;;
74229;SDS011;62589;12.568;99.958;2023-07-30T13:30:40;4.35;;;1.55;;
74229;SDS011;62589;12.568;99.958;2023-07-30T13:33:06;2.33;;;1.23;;
74229;SDS011;62589;12.568;99.958;2023-07-30T13:35:32;2.63;;;0.90;;
74229;SDS011;62589;12.568;99.958;2023-07-30T13:37:59;4.72;;;1.33;;
74229;SDS011;62589;12.568;99.958;2023-07-30T13:40:25;2.83;;;1.10;;
74229;SDS011;62589;12.568;99.958;2023-07-30T13:42:52;2.85;;;1.33;;
74229;SDS011;62589;12.568;99.958;2023-07-30T13:45:18;3.78;;;1.17;;
74229;SDS011;62589;12.568;99.958;2023-07-30T13:47:44;4.15;;;1.88;;
74229;SDS011;62589;12.568;99.958;2023-07-30T13:50:11;5.57;;;1.73;;
74229;SDS011;62589;12.568;99.958;2023-07-30T13:52:37;4.32;;;1.25;;
74229;SDS011;62589;12.568;99.958;2023-07-30T13:55:04;5.70;;;1.60;;
74229;SDS011;62589;12.568;99.958;2023-07-30T13:57:30;4.05;;;1.80;;
74229;SDS011;62589;12.568;99.958;2023-07-30T13:59:57;4.97;;;1.67;;
74229;SDS011;62589;12.568;99.958;2023-07-30T14:02:23;5.25;;;1.48;;
74229;SDS011;62589;12.568;99.958;2023-07-30T14:04:50;3.75;;;1.65;;
74229;SDS011;62589;12.568;99.958;2023-07-30T14:07:16;5.90;;;1.52;;
74229;SDS011;62589;12.568;99.958;2023-07-30T14:09:42;5.95;;;1.60;;
74229;SDS011;62589;12.568;99.958;2023-07-30T14:12:09;8.93;;;1.98;;
74229;SDS011;62589;12.568;99.958;2023-07-30T14:14:36;7.20;;;1.45;;
74229;SDS011;62589;12.568;99.958;2023-07-30T14:17:02;4.88;;;1.77;;
74229;SDS011;62589;12.568;99.958;2023-07-30T14:19:32;4.63;;;1.52;;
74229;SDS011;62589;12.568;99.958;2023-07-30T14:21:59;6.00;;;1.98;;
74229;SDS011;62589;12.568;99.958;2023-07-30T14:24:26;10.00;;;2.00;;
74229;SDS011;62589;12.568;99.958;2023-07-30T14:26:53;7.53;;;2.08;;
74229;SDS011;62589;12.568;99.958;2023-07-30T14:29:19;6.65;;;2.20;;
74229;SDS011;62589;12.568;99.958;2023-07-30T14:31:45;5.47;;;1.77;;
74229;SDS011;62589;12.568;99.958;2023-07-30T14:34:12;7.00;;;2.38;;
74229;SDS011;62589;12.568;99.958;2023-07-30T14:36:38;5.32;;;1.75;;
74229;SDS011;62589;12.568;99.958;2023-07-30T14:39:05;4.47;;;1.60;;
74229;SDS011;62589;12.568;99.958;2023-07-30T14:41:31;6.22;;;1.85;;
74229;SDS011;62589;12.568;99.958;2023-07-30T14:43:59;4.10;;;1.70;;